Time;durP1;ratioP1;P1;durP2;ratioP2;P2;SDS_P1;SDS_P2;PMS_P1;PMS_P2;Temp;Humidity;BMP_temperature;BMP_pressure;BME280_temperature;BME280_humidity;BME280_pressure;Samples;Min_cycle;Max_cycle;Signal;HPM_P1;HPM_P2
2023/11/27 00:01:36;;;;;;;;;;;;;;;;;;5072397;28;19927;-68
2023/11/27 00:04:02;;;;;;;;;;;;;;;;;;5072058;28;19943;-68
2023/11/27 00:06:28;;;;;;;;;;;;;;;;;;5050232;28;20270;-68
2023/11/27 00:08:54;;;;;;;;;;;;;;;;;;5082614;28;19925;-68
2023/11/27 00:11:20;;;;;;;;;;;;;;;;;;5078417;28;19988;-67
2023/11/27 00:13:46;;;;;;;;;;;;;;;;;;5084413;28;19921;-68
2023/11/27 00:16:12;;;;;;;;;;;;;;;;;;5065213;28;19920;-68
2023/11/27 00:18:38;;;;;;;;;;;;;;;;;;5062643;28;19928;-68
2023/11/27 00:21:04;;;;;;;;;;;;;;;;;;5078530;28;19924;-68
2023/11/27 00:23:30;;;;;;;;;;;;;;;;;;5075352;28;20145;-68
2023/11/27 00:25:56;;;;;;;;;;;;;;;;;;5080836;28;19974;-68
2023/11/27 00:28:22;;;;;;;;;;;;;;;;;;5077186;28;19983;-65
2023/11/27 00:30:48;;;;;;;;;;;;;;;;;;5067931;28;19971;-67
2023/11/27 00:33:14;;;;;;;;;;;;;;;;;;5067295;28;19967;-66
2023/11/27 00:35:40;;;;;;;;;;;;;;;;;;5050792;28;20369;-67
2023/11/27 00:38:06;;;;;;;;;;;;;;;;;;5071201;28;20015;-66
2023/11/27 00:40:33;;;;;;;;;;;;;;;;;;5066274;28;19924;-66
2023/11/27 00:42:58;;;;;;;;;;;;;;;;;;5070842;28;19974;-66
2023/11/27 00:45:24;;;;;;;;;;;;;;;;;;5058677;28;19933;-66
2023/11/27 00:47:50;;;;;;;;;;;;;;;;;;5060564;28;19921;-66
2023/11/27 00:50:17;;;;;;;;;;;;;;;;;;5064617;28;19963;-66
2023/11/27 00:52:43;;;;;;;;;;;;;;;;;;5053261;28;19995;-66
2023/11/27 00:55:09;;;;;;;;;;;;;;;;;;5066815;28;19971;-66
2023/11/27 00:57:35;;;;;;;;;;;;;;;;;;5068464;28;19979;-66
2023/11/27 01:00:01;;;;;;;;;;;;;;;;;;5071921;28;19920;-66
2023/11/27 01:02:27;;;;;;;;;;;;;;;;;;5070572;28;19920;-66
2023/11/27 01:04:54;;;;;;;;;;;;;;;;;;5061640;28;19929;-66
2023/11/27 01:07:20;;;;;;;;;;;;;;;;;;5064956;28;19925;-66
2023/11/27 01:09:46;;;;;;;;;;;;;;;;;;5052147;28;20074;-66
2023/11/27 01:12:12;;;;;;;;;;;;;;;;;;5065039;28;19921;-66
2023/11/27 01:14:38;;;;;;;;;;;;;;;;;;5046502;28;19931;-66
2023/11/27 01:17:03;;;;;;;;;;;;;;;;;;5081673;28;19932;-65
2023/11/27 01:19:29;;;;;;;;;;;;;;;;;;5050870;28;19956;-66
2023/11/27 01:21:55;;;;;;;;;;;;;;;;;;5063425;28;20372;-66
2023/11/27 01:24:22;;;;;;;;;;;;;;;;;;5068855;28;19955;-66
2023/11/27 01:26:48;;;;;;;;;;;;;;;;;;5067865;28;19976;-67
2023/11/27 01:29:14;;;;;;;;;;;;;;;;;;5067215;28;19968;-66
2023/11/27 01:31:40;;;;;;;;;;;;;;;;;;5068607;28;19928;-66
2023/11/27 01:34:06;;;;;;;;;;;;;;;;;;5071257;28;20293;-66
2023/11/27 01:36:32;;;;;;;;;;;;;;;;;;5070033;28;19925;-66
2023/11/27 01:38:58;;;;;;;;;;;;;;;;;;5069853;28;19932;-66
2023/11/27 01:41:24;;;;;;;;;;;;;;;;;;5064415;28;19977;-66
2023/11/27 01:43:50;;;;;;;;;;;;;;;;;;5069357;28;19921;-66
2023/11/27 01:46:16;;;;;;;;;;;;;;;;;;5081408;28;20369;-66
2023/11/27 01:48:42;;;;;;;;;;;;;;;;;;5063757;28;19924;-66
2023/11/27 01:51:08;;;;;;;;;;;;;;;;;;5065181;28;19966;-66
2023/11/27 01:53:34;;;;;;;;;;;;;;;;;;5066575;28;19946;-66
2023/11/27 01:55:59;;;;;;;;;;;;;;;;;;5065625;28;19935;-66
2023/11/27 01:58:25;;;;;;;;;;;;;;;;;;5068898;28;19929;-66
2023/11/27 02:00:51;;;;;;;;;;;;;;;;;;5058705;28;19921;-66
2023/11/27 02:03:17;;;;;;;;;;;;;;;;;;5070600;28;19945;-66
2023/11/27 02:05:43;;;;;;;;;;;;;;;;;;5066988;28;19925;-66
2023/11/27 02:08:09;;;;;;;;;;;;;;;;;;5068119;28;19925;-66
2023/11/27 02:10:35;;;;;;;;;;;;;;;;;;5070315;28;20278;-66
2023/11/27 02:13:01;;;;;;;;;;;;;;;;;;5049011;28;19921;-66
2023/11/27 02:15:27;;;;;;;;;;;;;;;;;;5070073;28;19928;-66
2023/11/27 02:17:53;;;;;;;;;;;;;;;;;;5070926;28;19982;-66
2023/11/27 02:20:19;;;;;;;;;;;;;;;;;;5070197;28;20505;-66
2023/11/27 02:22:44;;;;;;;;;;;;;;;;;;5068518;28;20392;-66
2023/11/27 02:25:11;;;;;;;;;;;;;;;;;;5069745;28;19963;-66
2023/11/27 02:27:37;;;;;;;;;;;;;;;;;;5067579;28;20477;-66
2023/11/27 02:30:03;;;;;;;;;;;;;;;;;;5055765;28;19970;-66
2023/11/27 02:32:29;;;;;;;;;;;;;;;;;;5068989;28;20490;-66
2023/11/27 02:34:55;;;;;;;;;;;;;;;;;;5069712;28;19925;-66
2023/11/27 02:37:21;;;;;;;;;;;;;;;;;;5070170;28;19924;-66
2023/11/27 02:39:47;;;;;;;;;;;;;;;;;;5057807;28;20008;-67
2023/11/27 02:42:13;;;;;;;;;;;;;;;;;;5067625;28;20023;-66
2023/11/27 02:44:39;;;;;;;;;;;;;;;;;;5069861;28;20408;-66
2023/11/27 02:47:05;;;;;;;;;;;;;;;;;;5067032;28;19929;-66
2023/11/27 02:49:31;;;;;;;;;;;;;;;;;;5067645;28;19942;-66
2023/11/27 02:51:57;;;;;;;;;;;;;;;;;;5069570;28;19978;-66
2023/11/27 02:54:23;;;;;;;;;;;;;;;;;;5067488;28;19928;-66
2023/11/27 02:56:49;;;;;;;;;;;;;;;;;;5066404;28;19973;-67
2023/11/27 02:59:15;;;;;;;;;;;;;;;;;;5064753;28;19921;-67
2023/11/27 03:01:41;;;;;;;;;;;;;;;;;;5068766;28;19932;-66
2023/11/27 03:04:08;;;;;;;;;;;;;;;;;;5070241;28;19921;-66
2023/11/27 03:06:34;;;;;;;;;;;;;;;;;;5067101;28;19968;-67
2023/11/27 03:09:00;;;;;;;;;;;;;;;;;;5070614;28;19962;-67
2023/11/27 03:11:26;;;;;;;;;;;;;;;;;;5071624;28;20381;-66
2023/11/27 03:13:52;;;;;;;;;;;;;;;;;;5072224;28;20039;-66
2023/11/27 03:16:18;;;;;;;;;;;;;;;;;;5072350;28;19924;-66
2023/11/27 03:18:44;;;;;;;;;;;;;;;;;;5071814;28;19995;-66
2023/11/27 03:21:10;;;;;;;;;;;;;;;;;;5074250;28;20388;-66
2023/11/27 03:23:35;;;;;;;;;;;;;;;;;;5074518;28;19925;-67
2023/11/27 03:26:03;;;;;;;;;;;;;;;;;;5089668;22;19928;-63
2023/11/27 03:28:28;;;;;;;;;;;;;;;;;;5078306;28;19929;-63
2023/11/27 03:30:54;;;;;;;;;;;;;;;;;;5067709;28;19935;-63
2023/11/27 03:33:21;;;;;;;;;;;;;;;;;;5073738;28;19931;-63
2023/11/27 03:35:47;;;;;;;;;;;;;;;;;;5071304;28;20060;-63
2023/11/27 03:38:13;;;;;;;;;;;;;;;;;;5066682;28;19929;-63
2023/11/27 03:40:39;;;;;;;;;;;;;;;;;;5066348;28;20389;-64
2023/11/27 03:43:04;;;;;;;;;;;;;;;;;;5069399;28;19928;-64
2023/11/27 03:45:30;;;;;;;;;;;;;;;;;;5064317;28;20301;-64
2023/11/27 03:47:57;;;;;;;;;;;;;;;;;;5071492;28;19928;-64
2023/11/27 03:50:23;;;;;;;;;;;;;;;;;;5068776;28;19955;-65
2023/11/27 03:52:49;;;;;;;;;;;;;;;;;;5067848;28;20330;-64
2023/11/27 03:55:15;;;;;;;;;;;;;;;;;;5070526;28;20267;-63
2023/11/27 03:57:41;;;;;;;;;;;;;;;;;;5065453;28;20429;-64
2023/11/27 04:00:09;;;;;;;;;;;;;;;;;;5067957;28;19952;-63
2023/11/27 04:02:34;;;;;;;;;;;;;;;;;;5066807;28;20369;-63
2023/11/27 04:05:00;;;;;;;;;;;;;;;;;;5061988;28;19978;-63
2023/11/27 04:07:27;;;;;;;;;;;;;;;;;;5063233;28;19921;-63
2023/11/27 04:09:53;;;;;;;;;;;;;;;;;;5070451;28;19927;-64
2023/11/27 04:12:19;;;;;;;;;;;;;;;;;;5066451;28;19920;-64
2023/11/27 04:14:45;;;;;;;;;;;;;;;;;;5064811;28;20370;-63
2023/11/27 04:17:11;;;;;;;;;;;;;;;;;;5071261;28;19929;-63
2023/11/27 04:19:37;;;;;;;;;;;;;;;;;;5068708;28;20324;-63
2023/11/27 04:22:03;;;;;;;;;;;;;;;;;;5063071;28;19958;-64
2023/11/27 04:24:29;;;;;;;;;;;;;;;;;;5063892;28;19970;-63
2023/11/27 04:26:55;;;;;;;;;;;;;;;;;;5067940;28;19928;-63
2023/11/27 04:29:21;;;;;;;;;;;;;;;;;;5070343;28;19924;-63
2023/11/27 04:31:47;;;;;;;;;;;;;;;;;;5068109;28;19924;-63
2023/11/27 04:34:14;;;;;;;;;;;;;;;;;;5070100;28;20273;-64
2023/11/27 04:36:40;;;;;;;;;;;;;;;;;;5065474;28;19924;-63
2023/11/27 04:39:10;;;;;;;;;;;;;;;;;;5072358;28;19924;-62
2023/11/27 04:41:36;;;;;;;;;;;;;;;;;;5048003;28;19927;-63
2023/11/27 04:44:02;;;;;;;;;;;;;;;;;;5066263;28;20293;-63
2023/11/27 04:46:28;;;;;;;;;;;;;;;;;;5063488;28;19925;-62
2023/11/27 04:48:54;;;;;;;;;;;;;;;;;;5071640;28;19931;-63
2023/11/27 04:51:20;;;;;;;;;;;;;;;;;;5068861;28;20045;-63
2023/11/27 04:53:46;;;;;;;;;;;;;;;;;;5069757;28;19950;-63
2023/11/27 04:56:12;;;;;;;;;;;;;;;;;;5070346;28;19942;-62
2023/11/27 04:58:38;;;;;;;;;;;;;;;;;;5067151;28;20373;-62
2023/11/27 05:01:04;;;;;;;;;;;;;;;;;;5068028;28;20034;-63
2023/11/27 05:03:30;;;;;;;;;;;;;;;;;;5069991;28;19977;-62
2023/11/27 05:05:59;;;;;;;;;;;;;;;;;;5069843;28;19924;-62
2023/11/27 05:08:28;;;;;;;;;;;;;;;;;;5067242;28;19920;-63
2023/11/27 05:10:55;;;;;;;;;;;;;;;;;;5069366;28;19928;-63
2023/11/27 05:13:21;;;;;;;;;;;;;;;;;;5069637;28;19985;-63
2023/11/27 05:15:47;;;;;;;;;;;;;;;;;;5068229;28;19925;-63
2023/11/27 05:18:13;;;;;;;;;;;;;;;;;;5069509;28;20420;-63
2023/11/27 05:20:38;;;;;;;;;;;;;;;;;;5067559;28;19928;-62
2023/11/27 05:23:04;;;;;;;;;;;;;;;;;;5066569;28;20265;-63
2023/11/27 05:25:30;;;;;;;;;;;;;;;;;;5067444;28;19978;-63
2023/11/27 05:27:56;;;;;;;;;;;;;;;;;;5067135;28;19924;-63
2023/11/27 05:30:22;;;;;;;;;;;;;;;;;;5062692;28;19967;-63
2023/11/27 05:32:48;;;;;;;;;;;;;;;;;;5065961;28;20374;-64
2023/11/27 05:35:14;;;;;;;;;;;;;;;;;;5068859;28;19967;-63
2023/11/27 05:37:40;;;;;;;;;;;;;;;;;;5061306;28;20024;-63
2023/11/27 05:40:06;;;;;;;;;;;;;;;;;;5066660;28;20362;-62
2023/11/27 05:42:39;;;;;;;;;;;;;;;;;;5070705;28;19920;-63
2023/11/27 05:45:05;;;;;;;;;;;;;;;;;;5069251;28;19924;-63
2023/11/27 05:47:31;;;;;;;;;;;;;;;;;;5066794;28;19947;-63
2023/11/27 05:49:57;;;;;;;;;;;;;;;;;;5067396;28;19924;-63
2023/11/27 05:52:22;;;;;;;;;;;;;;;;;;5064797;28;20453;-62
2023/11/27 05:54:48;;;;;;;;;;;;;;;;;;5069961;28;20030;-63
2023/11/27 05:57:14;;;;;;;;;;;;;;;;;;5070225;28;19932;-63
2023/11/27 05:59:40;;;;;;;;;;;;;;;;;;5066427;28;19974;-63
2023/11/27 06:02:06;;;;;;;;;;;;;;;;;;5068262;28;20442;-63
2023/11/27 06:04:32;;;;;;;;;;;;;;;;;;5070187;28;19928;-63
2023/11/27 06:06:58;;;;;;;;;;;;;;;;;;5069237;28;19920;-63
2023/11/27 06:09:24;;;;;;;;;;;;;;;;;;5066304;28;19969;-62
2023/11/27 06:11:50;;;;;;;;;;;;;;;;;;5070387;28;19925;-62
2023/11/27 06:14:17;;;;;;;;;;;;;;;;;;5071421;28;20020;-62
2023/11/27 06:16:43;;;;;;;;;;;;;;;;;;5066116;28;19925;-63
2023/11/27 06:19:09;;;;;;;;;;;;;;;;;;5070103;28;19931;-63
2023/11/27 06:21:35;;;;;;;;;;;;;;;;;;5065242;28;19924;-63
2023/11/27 06:24:01;;;;;;;;;;;;;;;;;;5066141;28;19924;-62
2023/11/27 06:26:28;;;;;;;;;;;;;;;;;;5069913;28;19959;-63
2023/11/27 06:28:54;;;;;;;;;;;;;;;;;;5067925;28;19921;-63
2023/11/27 06:31:19;;;;;;;;;;;;;;;;;;5068347;28;20035;-64
2023/11/27 06:33:46;;;;;;;;;;;;;;;;;;5068387;28;20505;-64
2023/11/27 06:36:12;;;;;;;;;;;;;;;;;;5067900;28;19920;-66
2023/11/27 06:38:38;;;;;;;;;;;;;;;;;;5066105;28;20315;-63
2023/11/27 06:41:04;;;;;;;;;;;;;;;;;;5066202;28;20409;-63
2023/11/27 06:43:31;;;;;;;;;;;;;;;;;;5066873;28;20309;-63
2023/11/27 06:45:56;;;;;;;;;;;;;;;;;;5073007;28;19963;-63
2023/11/27 06:48:22;;;;;;;;;;;;;;;;;;5074830;28;20047;-63
2023/11/27 06:50:48;;;;;;;;;;;;;;;;;;5071367;28;19920;-63
2023/11/27 06:53:14;;;;;;;;;;;;;;;;;;5066197;28;19925;-62
2023/11/27 06:55:40;;;;;;;;;;;;;;;;;;5072504;28;19935;-62
2023/11/27 06:58:07;;;;;;;;;;;;;;;;;;5069046;28;19936;-62
2023/11/27 07:00:33;;;;;;;;;;;;;;;;;;5067534;28;19982;-63
2023/11/27 07:02:59;;;;;;;;;;;;;;;;;;5072968;28;19952;-62
2023/11/27 07:05:25;;;;;;;;;;;;;;;;;;5072083;28;19925;-62
2023/11/27 07:07:51;;;;;;;;;;;;;;;;;;5070597;28;19928;-62
2023/11/27 07:10:17;;;;;;;;;;;;;;;;;;5072042;28;19920;-63
2023/11/27 07:12:43;;;;;;;;;;;;;;;;;;5071579;28;19924;-63
2023/11/27 07:15:10;;;;;;;;;;;;;;;;;;5073606;28;20361;-63
2023/11/27 07:17:35;;;;;;;;;;;;;;;;;;5060268;28;19925;-63
2023/11/27 07:20:01;;;;;;;;;;;;;;;;;;5079618;28;20293;-63
2023/11/27 07:22:27;;;;;;;;;;;;;;;;;;5061602;28;20362;-63
2023/11/27 07:24:53;;;;;;;;;;;;;;;;;;5065805;28;19928;-63
2023/11/27 07:27:20;;;;;;;;;;;;;;;;;;5069184;28;19920;-62
2023/11/27 07:29:46;;;;;;;;;;;;;;;;;;5087158;28;19935;-62
2023/11/27 07:32:12;;;;;;;;;;;;;;;;;;5070710;28;19928;-62
2023/11/27 07:34:38;;;;;;;;;;;;;;;;;;5073190;28;19924;-62
2023/11/27 07:37:04;;;;;;;;;;;;;;;;;;5072813;28;19955;-62
2023/11/27 07:39:30;;;;;;;;;;;;;;;;;;5067827;28;19928;-62
2023/11/27 07:41:56;;;;;;;;;;;;;;;;;;5072470;28;19936;-62
2023/11/27 07:44:25;;;;;;;;;;;;;;;;;;5073457;28;19931;-62
2023/11/27 07:46:50;;;;;;;;;;;;;;;;;;5073430;28;20322;-63
2023/11/27 07:49:18;;;;;;;;;;;;;;;;;;5073365;28;19990;-63
2023/11/27 07:51:44;;;;;;;;;;;;;;;;;;5073483;28;20413;-63
2023/11/27 07:54:13;;;;;;;;;;;;;;;;;;5068121;28;21192;-62
2023/11/27 07:56:39;;;;;;;;;;;;;;;;;;5073232;28;19934;-62
2023/11/27 07:59:05;;;;;;;;;;;;;;;;;;5079141;28;20011;-63
2023/11/27 08:01:31;;;;;;;;;;;;;;;;;;5069165;28;20015;-62
2023/11/27 08:03:57;;;;;;;;;;;;;;;;;;5069268;28;20428;-62
2023/11/27 08:06:25;;;;;;;;;;;;;;;;;;5072872;28;20538;-63
2023/11/27 08:08:50;;;;;;;;;;;;;;;;;;5068766;28;19924;-63
2023/11/27 08:11:16;;;;;;;;;;;;;;;;;;5073278;28;20408;-63
2023/11/27 08:13:45;;;;;;;;;;;;;;;;;;5072869;28;19936;-63
2023/11/27 08:16:11;;;;;;;;;;;;;;;;;;5063369;28;20286;-64
2023/11/27 08:18:40;;;;;;;;;;;;;;;;;;5086503;28;19925;-62
2023/11/27 08:21:07;;;;;;;;;;;;;;;;;;5073205;28;20003;-62
2023/11/27 08:23:34;;;;;;;;;;;;;;;;;;5072584;28;19924;-62
2023/11/27 08:26:01;;;;;;;;;;;;;;;;;;5070276;28;20011;-62
2023/11/27 08:28:29;;;;;;;;;;;;;;;;;;5063012;28;20085;-62
2023/11/27 08:30:55;;;;;;;;;;;;;;;;;;5067731;28;20356;-63
2023/11/27 08:33:21;;;;;;;;;;;;;;;;;;5070692;28;19920;-62
2023/11/27 08:35:47;;;;;;;;;;;;;;;;;;5069004;28;19928;-63
2023/11/27 08:38:13;;;;;;;;;;;;;;;;;;5070587;28;19933;-62
2023/11/27 08:40:41;;;;;;;;;;;;;;;;;;5063812;28;19928;-62
2023/11/27 08:43:07;;;;;;;;;;;;;;;;;;5066442;28;20397;-62
2023/11/27 08:45:33;;;;;;;;;;;;;;;;;;5069504;28;20338;-62
2023/11/27 08:48:00;;;;;;;;;;;;;;;;;;5064066;28;31110;-62
2023/11/27 08:50:29;;;;;;;;;;;;;;;;;;5067218;28;19921;-62
2023/11/27 08:52:57;;;;;;;;;;;;;;;;;;5067513;28;19931;-61
2023/11/27 08:55:28;;;;;;;;;;;;;;;;;;5062960;28;19924;-62
2023/11/27 08:57:54;;;;;;;;;;;;;;;;;;5065672;28;20377;-63
2023/11/27 09:00:20;;;;;;;;;;;;;;;;;;5064472;28;19924;-63
2023/11/27 09:02:46;;;;;;;;;;;;;;;;;;5069735;28;19927;-63
2023/11/27 09:05:12;;;;;;;;;;;;;;;;;;5065794;28;19920;-63
2023/11/27 09:07:38;;;;;;;;;;;;;;;;;;5068451;28;20416;-63
2023/11/27 09:10:04;;;;;;;;;;;;;;;;;;5061465;28;19925;-63
2023/11/27 09:12:31;;;;;;;;;;;;;;;;;;5056195;28;19920;-63
2023/11/27 09:14:57;;;;;;;;;;;;;;;;;;5065555;28;19928;-63
2023/11/27 09:17:23;;;;;;;;;;;;;;;;;;5066925;28;19992;-63
2023/11/27 09:19:49;;;;;;;;;;;;;;;;;;5064016;28;20807;-63
2023/11/27 09:22:15;;;;;;;;;;;;;;;;;;5066814;28;20209;-63
2023/11/27 09:24:40;;;;;;;;;;;;;;;;;;5058078;28;19967;-63
2023/11/27 09:27:06;;;;;;;;;;;;;;;;;;5059166;28;19928;-63
2023/11/27 09:29:32;;;;;;;;;;;;;;;;;;5067250;28;20066;-62
2023/11/27 09:31:59;;;;;;;;;;;;;;;;;;5064226;28;19925;-62
2023/11/27 09:34:27;;;;;;;;;;;;;;;;;;5080292;28;19936;-63
2023/11/27 09:36:53;;;;;;;;;;;;;;;;;;5065024;28;20342;-63
2023/11/27 09:39:18;;;;;;;;;;;;;;;;;;5082686;28;19963;-63
2023/11/27 09:41:44;;;;;;;;;;;;;;;;;;5070240;28;20046;-63
2023/11/27 09:44:12;;;;;;;;;;;;;;;;;;5079234;28;19988;-63
2023/11/27 09:46:38;;;;;;;;;;;;;;;;;;5065627;28;19931;-63
2023/11/27 09:49:08;;;;;;;;;;;;;;;;;;5067512;28;19924;-62
2023/11/27 09:51:34;;;;;;;;;;;;;;;;;;5079981;28;20323;-62
2023/11/27 09:54:00;;;;;;;;;;;;;;;;;;5066680;28;20015;-62
2023/11/27 09:56:27;;;;;;;;;;;;;;;;;;5068100;28;19928;-62
2023/11/27 09:58:53;;;;;;;;;;;;;;;;;;5068162;28;19928;-62
2023/11/27 10:01:21;;;;;;;;;;;;;;;;;;5068848;28;19924;-63
2023/11/27 10:03:47;;;;;;;;;;;;;;;;;;5078961;28;19936;-63
2023/11/27 10:06:13;;;;;;;;;;;;;;;;;;5065276;28;19920;-62
2023/11/27 10:08:40;;;;;;;;;;;;;;;;;;5059594;28;19920;-62
2023/11/27 10:11:05;;;;;;;;;;;;;;;;;;5069972;28;19929;-62
2023/11/27 10:13:34;;;;;;;;;;;;;;;;;;5069479;28;19974;-63
2023/11/27 10:16:02;;;;;;;;;;;;;;;;;;5068512;28;19921;-63
2023/11/27 10:18:28;;;;;;;;;;;;;;;;;;5071846;28;19928;-62
2023/11/27 10:20:54;;;;;;;;;;;;;;;;;;5072730;28;19970;-63
2023/11/27 10:23:20;;;;;;;;;;;;;;;;;;5061941;28;19924;-62
2023/11/27 10:25:46;;;;;;;;;;;;;;;;;;5081081;28;20353;-63
2023/11/27 10:28:12;;;;;;;;;;;;;;;;;;5067947;28;19973;-62
2023/11/27 10:30:40;;;;;;;;;;;;;;;;;;5072032;28;20490;-62
2023/11/27 10:33:06;;;;;;;;;;;;;;;;;;5074384;28;20354;-63
2023/11/27 10:35:32;;;;;;;;;;;;;;;;;;5073195;28;19928;-62
2023/11/27 10:37:58;;;;;;;;;;;;;;;;;;5071258;28;19929;-62
2023/11/27 10:40:26;;;;;;;;;;;;;;;;;;5072620;28;20408;-63
2023/11/27 10:42:52;;;;;;;;;;;;;;;;;;5073334;28;19981;-63
2023/11/27 10:45:18;;;;;;;;;;;;;;;;;;5068619;28;19943;-63
2023/11/27 10:47:44;;;;;;;;;;;;;;;;;;5070431;28;19928;-63
2023/11/27 10:50:12;;;;;;;;;;;;;;;;;;5075050;28;19928;-62
2023/11/27 10:52:38;;;;;;;;;;;;;;;;;;5073855;28;19928;-62
2023/11/27 10:55:05;;;;;;;;;;;;;;;;;;5072029;28;19950;-62
2023/11/27 10:57:31;;;;;;;;;;;;;;;;;;5069394;28;19928;-62
2023/11/27 10:59:57;;;;;;;;;;;;;;;;;;5071214;28;20411;-62
2023/11/27 11:02:23;;;;;;;;;;;;;;;;;;5064503;28;19921;-63
2023/11/27 11:04:50;;;;;;;;;;;;;;;;;;5080171;28;19929;-63
2023/11/27 11:07:19;;;;;;;;;;;;;;;;;;5071272;28;19956;-62
2023/11/27 11:09:44;;;;;;;;;;;;;;;;;;5061608;28;20355;-62
2023/11/27 11:12:10;;;;;;;;;;;;;;;;;;5068500;28;19924;-62
2023/11/27 11:14:37;;;;;;;;;;;;;;;;;;5070352;28;19920;-62
2023/11/27 11:17:07;;;;;;;;;;;;;;;;;;5058563;28;19936;-62
2023/11/27 11:19:33;;;;;;;;;;;;;;;;;;5064740;28;19928;-62
2023/11/27 11:22:01;;;;;;;;;;;;;;;;;;5065124;28;20015;-62
2023/11/27 11:24:27;;;;;;;;;;;;;;;;;;5056837;28;20001;-61
2023/11/27 11:26:53;;;;;;;;;;;;;;;;;;5061804;28;20353;-62
2023/11/27 11:29:20;;;;;;;;;;;;;;;;;;5069957;28;20011;-61
2023/11/27 11:31:46;;;;;;;;;;;;;;;;;;5072120;28;19940;-62
2023/11/27 11:34:12;;;;;;;;;;;;;;;;;;5070059;28;19929;-62
2023/11/27 11:36:38;;;;;;;;;;;;;;;;;;5073060;28;19924;-62
2023/11/27 11:39:06;;;;;;;;;;;;;;;;;;5072601;28;20294;-62
2023/11/27 11:41:32;;;;;;;;;;;;;;;;;;5067952;28;19921;-62
2023/11/27 11:43:58;;;;;;;;;;;;;;;;;;5072372;28;19927;-62
2023/11/27 11:46:25;;;;;;;;;;;;;;;;;;5071066;28;20305;-62
2023/11/27 11:48:50;;;;;;;;;;;;;;;;;;5063646;28;20282;-62
2023/11/27 11:51:17;;;;;;;;;;;;;;;;;;5067041;28;19927;-62
2023/11/27 11:53:43;;;;;;;;;;;;;;;;;;5069811;28;19929;-62
2023/11/27 11:56:13;;;;;;;;;;;;;;;;;;5065962;28;19921;-62
2023/11/27 11:58:39;;;;;;;;;;;;;;;;;;5068296;28;19982;-62
2023/11/27 12:01:08;;;;;;;;;;;;;;;;;;5063082;28;19928;-62
2023/11/27 12:03:36;;;;;;;;;;;;;;;;;;5060762;28;19928;-62
2023/11/27 12:06:02;;;;;;;;;;;;;;;;;;5065372;28;19920;-62
2023/11/27 12:08:28;;;;;;;;;;;;;;;;;;5067633;28;19925;-62
2023/11/27 12:10:54;;;;;;;;;;;;;;;;;;5067705;28;19924;-62
2023/11/27 12:13:21;;;;;;;;;;;;;;;;;;5063057;28;19924;-62
2023/11/27 12:15:47;;;;;;;;;;;;;;;;;;5065197;28;19967;-62
2023/11/27 12:18:12;;;;;;;;;;;;;;;;;;5067615;28;20019;-62
2023/11/27 12:20:42;;;;;;;;;;;;;;;;;;5067347;28;19964;-62
2023/11/27 12:23:08;;;;;;;;;;;;;;;;;;5066351;28;19924;-63
2023/11/27 12:25:34;;;;;;;;;;;;;;;;;;5063855;28;19933;-62
2023/11/27 12:28:00;;;;;;;;;;;;;;;;;;5066741;28;19936;-63
2023/11/27 12:30:26;;;;;;;;;;;;;;;;;;5069189;28;19934;-63
2023/11/27 12:32:51;;;;;;;;;;;;;;;;;;5070562;28;19924;-63
2023/11/27 12:35:17;;;;;;;;;;;;;;;;;;5066074;28;19924;-63
2023/11/27 12:37:43;;;;;;;;;;;;;;;;;;5072200;28;19928;-63
2023/11/27 12:40:09;;;;;;;;;;;;;;;;;;5079119;28;19920;-62
2023/11/27 12:42:35;;;;;;;;;;;;;;;;;;5059717;28;19974;-63
2023/11/27 12:45:03;;;;;;;;;;;;;;;;;;5064038;28;20007;-63
2023/11/27 12:47:34;;;;;;;;;;;;;;;;;;5066790;28;20293;-63
2023/11/27 12:50:00;;;;;;;;;;;;;;;;;;5072109;28;19974;-64
2023/11/27 12:52:27;;;;;;;;;;;;;;;;;;5069108;28;19991;-62
2023/11/27 12:54:56;;;;;;;;;;;;;;;;;;5065679;28;19927;-62
2023/11/27 12:57:22;;;;;;;;;;;;;;;;;;5071432;28;19986;-62
2023/11/27 12:59:48;;;;;;;;;;;;;;;;;;5060085;28;19927;-62
2023/11/27 13:02:14;;;;;;;;;;;;;;;;;;5061625;28;19924;-62
2023/11/27 13:04:40;;;;;;;;;;;;;;;;;;5064938;28;19935;-63
2023/11/27 13:07:09;;;;;;;;;;;;;;;;;;5062801;28;20263;-63
2023/11/27 13:09:35;;;;;;;;;;;;;;;;;;5069330;28;19931;-63
2023/11/27 13:12:15;;;;;;;;;;;;;;;;;;5069038;28;20306;-63
2023/11/27 13:14:40;;;;;;;;;;;;;;;;;;5057667;28;19921;-63
2023/11/27 13:17:06;;;;;;;;;;;;;;;;;;5061665;28;19932;-62
2023/11/27 13:19:32;;;;;;;;;;;;;;;;;;5063836;28;20333;-62
2023/11/27 13:21:58;;;;;;;;;;;;;;;;;;5069245;28;19921;-63
2023/11/27 13:24:29;;;;;;;;;;;;;;;;;;5064612;28;19936;-62
2023/11/27 13:26:55;;;;;;;;;;;;;;;;;;5058708;28;19928;-63
2023/11/27 13:29:26;;;;;;;;;;;;;;;;;;5070426;28;20423;-62
2023/11/27 13:31:52;;;;;;;;;;;;;;;;;;5061837;28;19921;-63
2023/11/27 13:34:32;;;;;;;;;;;;;;;;;;5063980;28;19924;-64
2023/11/27 13:36:59;;;;;;;;;;;;;;;;;;5059148;28;19929;-63
2023/11/27 13:39:32;;;;;;;;;;;;;;;;;;5063469;28;20386;-63
2023/11/27 13:41:58;;;;;;;;;;;;;;;;;;5057227;28;19932;-63
2023/11/27 13:44:25;;;;;;;;;;;;;;;;;;5061804;28;19928;-63
2023/11/27 13:46:51;;;;;;;;;;;;;;;;;;5056879;28;19924;-62
2023/11/27 13:49:19;;;;;;;;;;;;;;;;;;5058497;28;19921;-62
2023/11/27 13:51:45;;;;;;;;;;;;;;;;;;5068085;28;20019;-62
2023/11/27 13:54:11;;;;;;;;;;;;;;;;;;5056904;28;19935;-63
2023/11/27 13:56:37;;;;;;;;;;;;;;;;;;5064832;28;19920;-62
2023/11/27 13:59:08;;;;;;;;;;;;;;;;;;5064924;28;20367;-62
2023/11/27 14:01:34;;;;;;;;;;;;;;;;;;5057130;28;19928;-63
2023/11/27 14:04:53;;;;;;;;;;;;;;;;;;5068183;28;20344;-62
2023/11/27 14:06:46;;;;;;;;;;;;;;;;;;5061098;28;19920;-63
2023/11/27 14:09:54;;;;;;;;;;;;;;;;;;5067123;28;19999;-62
2023/11/27 14:12:00;;;;;;;;;;;;;;;;;;5072973;28;19935;-62
2023/11/27 14:14:27;;;;;;;;;;;;;;;;;;5066159;28;19928;-62
2023/11/27 14:17:12;;;;;;;;;;;;;;;;;;5059978;28;19927;-62
2023/11/27 14:25:30;;;;;;;;;;;;;;;;;;5064380;28;19932;-62
2023/11/27 14:28:12;;;;;;;;;;;;;;;;;;5060383;28;20397;-62
2023/11/27 14:30:37;;;;;;;;;;;;;;;;;;5074366;28;20011;-62
2023/11/27 14:33:03;;;;;;;;;;;;;;;;;;5075619;28;20037;-62
2023/11/27 14:35:29;;;;;;;;;;;;;;;;;;5064466;28;20080;-62
2023/11/27 14:37:56;;;;;;;;;;;;;;;;;;5060860;28;19928;-62
2023/11/27 14:40:23;;;;;;;;;;;;;;;;;;5063416;28;20297;-62
2023/11/27 14:42:52;;;;;;;;;;;;;;;;;;5065497;28;19920;-62
2023/11/27 14:45:18;;;;;;;;;;;;;;;;;;5075784;28;20312;-63
2023/11/27 14:47:45;;;;;;;;;;;;;;;;;;5066425;28;19928;-63
2023/11/27 14:50:11;;;;;;;;;;;;;;;;;;5065910;28;19939;-62
2023/11/27 14:52:37;;;;;;;;;;;;;;;;;;5068303;28;19959;-62
2023/11/27 14:55:03;;;;;;;;;;;;;;;;;;5070677;28;20338;-62
2023/11/27 14:57:29;;;;;;;;;;;;;;;;;;5065674;28;20297;-63
2023/11/27 14:59:56;;;;;;;;;;;;;;;;;;5065401;28;19924;-63
2023/11/27 15:02:23;;;;;;;;;;;;;;;;;;5067604;28;19928;-63
2023/11/27 15:04:48;;;;;;;;;;;;;;;;;;5059136;28;19943;-62
2023/11/27 15:07:14;;;;;;;;;;;;;;;;;;5063118;28;19924;-63
2023/11/27 15:09:40;;;;;;;;;;;;;;;;;;5075438;28;19931;-62
2023/11/27 15:12:08;;;;;;;;;;;;;;;;;;5073833;28;20354;-62
2023/11/27 15:14:34;;;;;;;;;;;;;;;;;;5072717;28;19925;-62
2023/11/27 15:17:00;;;;;;;;;;;;;;;;;;5075748;28;19928;-62
2023/11/27 15:19:26;;;;;;;;;;;;;;;;;;5070396;28;20385;-63
2023/11/27 15:21:55;;;;;;;;;;;;;;;;;;5072413;28;19928;-63
2023/11/27 15:24:22;;;;;;;;;;;;;;;;;;5078272;28;19927;-62
2023/11/27 15:26:52;;;;;;;;;;;;;;;;;;5072816;28;19940;-62
2023/11/27 15:29:18;;;;;;;;;;;;;;;;;;5070490;28;19921;-63
2023/11/27 15:31:45;;;;;;;;;;;;;;;;;;5070050;28;19932;-63
2023/11/27 15:34:11;;;;;;;;;;;;;;;;;;5072376;28;20028;-63
2023/11/27 15:36:37;;;;;;;;;;;;;;;;;;5071535;28;19985;-63
2023/11/27 15:39:15;;;;;;;;;;;;;;;;;;5073394;28;19925;-63
2023/11/27 15:41:43;;;;;;;;;;;;;;;;;;5097131;22;19970;-65
2023/11/27 15:44:09;;;;;;;;;;;;;;;;;;5094800;28;19929;-65
2023/11/27 15:46:35;;;;;;;;;;;;;;;;;;5061812;28;20015;-65
2023/11/27 15:49:01;;;;;;;;;;;;;;;;;;5080436;28;20081;-65
2023/11/27 15:51:27;;;;;;;;;;;;;;;;;;5054381;28;19931;-65
2023/11/27 15:53:53;;;;;;;;;;;;;;;;;;5089492;28;19920;-65
2023/11/27 15:56:19;;;;;;;;;;;;;;;;;;5072537;28;20311;-65
2023/11/27 15:58:45;;;;;;;;;;;;;;;;;;5086419;28;20361;-65
2023/11/27 16:01:12;;;;;;;;;;;;;;;;;;5055409;28;19966;-65
2023/11/27 16:03:38;;;;;;;;;;;;;;;;;;5086284;28;19924;-65
2023/11/27 16:06:04;;;;;;;;;;;;;;;;;;5089583;28;19924;-65
2023/11/27 16:08:30;;;;;;;;;;;;;;;;;;5085691;28;19928;-66
2023/11/27 16:10:56;;;;;;;;;;;;;;;;;;5088990;28;19926;-65
2023/11/27 16:13:22;;;;;;;;;;;;;;;;;;5072943;28;19931;-66
2023/11/27 16:15:51;;;;;;;;;;;;;;;;;;5086096;28;19920;-66
2023/11/27 16:18:17;;;;;;;;;;;;;;;;;;5088247;28;20541;-66
2023/11/27 16:20:44;;;;;;;;;;;;;;;;;;5091400;28;19924;-66
2023/11/27 16:23:11;;;;;;;;;;;;;;;;;;5082666;28;20022;-65
2023/11/27 16:25:37;;;;;;;;;;;;;;;;;;5085059;28;20001;-66
2023/11/27 16:28:04;;;;;;;;;;;;;;;;;;5084468;28;20369;-66
2023/11/27 16:30:35;;;;;;;;;;;;;;;;;;5087249;28;19931;-66
2023/11/27 16:33:01;;;;;;;;;;;;;;;;;;5086691;28;19920;-66
2023/11/27 16:35:28;;;;;;;;;;;;;;;;;;5072132;28;20011;-66
2023/11/27 16:37:54;;;;;;;;;;;;;;;;;;5083977;28;19920;-66
2023/11/27 16:40:20;;;;;;;;;;;;;;;;;;5087019;28;20380;-65
2023/11/27 16:42:47;;;;;;;;;;;;;;;;;;5082853;28;19928;-66
2023/11/27 16:45:13;;;;;;;;;;;;;;;;;;5083914;28;19920;-66
2023/11/27 16:47:39;;;;;;;;;;;;;;;;;;5078714;28;19963;-66